sensor_id;sensor_type;location;lat;lon;timestamp;P1;durP1;ratioP1;P2;durP2;ratioP2
39190;SDS011;24916;51.676;6.614;2022-07-29T00:02:17;4.13;;;1.10;;
39190;SDS011;24916;51.676;6.614;2022-07-29T00:04:42;3.33;;;1.10;;
39190;SDS011;24916;51.676;6.614;2022-07-29T00:07:07;2.90;;;0.80;;
39190;SDS011;24916;51.676;6.614;2022-07-29T00:09:33;4.13;;;1.08;;
39190;SDS011;24916;51.676;6.614;2022-07-29T00:11:59;2.28;;;0.68;;
39190;SDS011;24916;51.676;6.614;2022-07-29T00:14:25;8.80;;;0.88;;
39190;SDS011;24916;51.676;6.614;2022-07-29T00:16:50;2.03;;;0.88;;
39190;SDS011;24916;51.676;6.614;2022-07-29T00:19:16;4.15;;;0.93;;
39190;SDS011;24916;51.676;6.614;2022-07-29T00:21:41;3.67;;;1.00;;
39190;SDS011;24916;51.676;6.614;2022-07-29T00:24:06;4.10;;;0.90;;
39190;SDS011;24916;51.676;6.614;2022-07-29T00:26:32;4.50;;;0.90;;
39190;SDS011;24916;51.676;6.614;2022-07-29T00:29:00;3.42;;;0.90;;
39190;SDS011;24916;51.676;6.614;2022-07-29T00:31:26;2.53;;;0.80;;
39190;SDS011;24916;51.676;6.614;2022-07-29T00:33:52;2.97;;;0.80;;
39190;SDS011;24916;51.676;6.614;2022-07-29T00:36:17;2.15;;;0.80;;
39190;SDS011;24916;51.676;6.614;2022-07-29T00:38:42;3.87;;;0.80;;
39190;SDS011;24916;51.676;6.614;2022-07-29T00:41:10;2.63;;;1.00;;
39190;SDS011;24916;51.676;6.614;2022-07-29T00:43:35;2.55;;;0.65;;
39190;SDS011;24916;51.676;6.614;2022-07-29T00:46:00;4.87;;;1.00;;
39190;SDS011;24916;51.676;6.614;2022-07-29T00:48:26;6.05;;;0.80;;
39190;SDS011;24916;51.676;6.614;2022-07-29T00:50:51;4.17;;;1.00;;
39190;SDS011;24916;51.676;6.614;2022-07-29T00:53:17;3.58;;;1.00;;
39190;SDS011;24916;51.676;6.614;2022-07-29T00:55:42;3.37;;;0.93;;
39190;SDS011;24916;51.676;6.614;2022-07-29T00:58:07;5.18;;;0.88;;
39190;SDS011;24916;51.676;6.614;2022-07-29T01:00:33;3.63;;;0.70;;
39190;SDS011;24916;51.676;6.614;2022-07-29T01:02:58;3.50;;;0.80;;
39190;SDS011;24916;51.676;6.614;2022-07-29T01:05:24;4.20;;;0.70;;
39190;SDS011;24916;51.676;6.614;2022-07-29T01:07:51;1.50;;;0.70;;
39190;SDS011;24916;51.676;6.614;2022-07-29T01:10:17;3.40;;;0.73;;
39190;SDS011;24916;51.676;6.614;2022-07-29T01:12:44;3.92;;;0.90;;
39190;SDS011;24916;51.676;6.614;2022-07-29T01:15:09;3.83;;;0.82;;
39190;SDS011;24916;51.676;6.614;2022-07-29T01:17:36;3.05;;;0.90;;
39190;SDS011;24916;51.676;6.614;2022-07-29T01:30:08;3.00;;;0.90;;
39190;SDS011;24916;51.676;6.614;2022-07-29T01:32:36;6.43;;;0.93;;
39190;SDS011;24916;51.676;6.614;2022-07-29T01:35:03;1.73;;;0.70;;
39190;SDS011;24916;51.676;6.614;2022-07-29T01:37:36;4.90;;;0.90;;
39190;SDS011;24916;51.676;6.614;2022-07-29T01:40:03;3.63;;;0.80;;
39190;SDS011;24916;51.676;6.614;2022-07-29T01:42:36;5.07;;;1.00;;
39190;SDS011;24916;51.676;6.614;2022-07-29T01:47:33;2.58;;;0.70;;
39190;SDS011;24916;51.676;6.614;2022-07-29T01:49:59;5.95;;;1.00;;
39190;SDS011;24916;51.676;6.614;2022-07-29T01:52:27;1.75;;;0.75;;
39190;SDS011;24916;51.676;6.614;2022-07-29T01:54:56;2.38;;;0.68;;
39190;SDS011;24916;51.676;6.614;2022-07-29T01:57:26;2.15;;;0.80;;
39190;SDS011;24916;51.676;6.614;2022-07-29T01:59:52;1.65;;;0.65;;
39190;SDS011;24916;51.676;6.614;2022-07-29T02:02:19;3.47;;;0.88;;
39190;SDS011;24916;51.676;6.614;2022-07-29T02:04:45;2.97;;;1.02;;
39190;SDS011;24916;51.676;6.614;2022-07-29T02:07:13;3.22;;;0.70;;
39190;SDS011;24916;51.676;6.614;2022-07-29T02:09:40;3.00;;;0.80;;
39190;SDS011;24916;51.676;6.614;2022-07-29T02:12:06;5.68;;;0.90;;
39190;SDS011;24916;51.676;6.614;2022-07-29T02:14:40;3.28;;;0.90;;
39190;SDS011;24916;51.676;6.614;2022-07-29T02:17:08;5.90;;;0.85;;
39190;SDS011;24916;51.676;6.614;2022-07-29T02:19:34;4.80;;;0.85;;
39190;SDS011;24916;51.676;6.614;2022-07-29T02:22:02;5.95;;;0.77;;
39190;SDS011;24916;51.676;6.614;2022-07-29T02:24:28;4.50;;;0.85;;
39190;SDS011;24916;51.676;6.614;2022-07-29T02:26:55;1.83;;;0.73;;
39190;SDS011;24916;51.676;6.614;2022-07-29T02:29:22;4.88;;;1.27;;
39190;SDS011;24916;51.676;6.614;2022-07-29T02:31:48;4.03;;;0.80;;
39190;SDS011;24916;51.676;6.614;2022-07-29T02:34:14;3.20;;;0.85;;
39190;SDS011;24916;51.676;6.614;2022-07-29T02:36:40;3.08;;;0.77;;
39190;SDS011;24916;51.676;6.614;2022-07-29T02:39:08;6.30;;;1.10;;
39190;SDS011;24916;51.676;6.614;2022-07-29T02:41:35;5.82;;;1.02;;
39190;SDS011;24916;51.676;6.614;2022-07-29T02:44:09;5.30;;;1.27;;
39190;SDS011;24916;51.676;6.614;2022-07-29T02:46:35;3.63;;;0.90;;
39190;SDS011;24916;51.676;6.614;2022-07-29T02:51:33;5.05;;;0.90;;
39190;SDS011;24916;51.676;6.614;2022-07-29T02:54:01;4.07;;;0.77;;
39190;SDS011;24916;51.676;6.614;2022-07-29T02:56:31;4.25;;;1.00;;
39190;SDS011;24916;51.676;6.614;2022-07-29T02:59:00;4.57;;;0.90;;
39190;SDS011;24916;51.676;6.614;2022-07-29T03:01:29;3.97;;;1.08;;
39190;SDS011;24916;51.676;6.614;2022-07-29T03:03:55;3.75;;;0.90;;
39190;SDS011;24916;51.676;6.614;2022-07-29T03:06:22;3.67;;;0.70;;
39190;SDS011;24916;51.676;6.614;2022-07-29T03:08:48;5.50;;;1.10;;
39190;SDS011;24916;51.676;6.614;2022-07-29T03:11:14;3.88;;;1.10;;
39190;SDS011;24916;51.676;6.614;2022-07-29T03:13:40;7.28;;;1.30;;
39190;SDS011;24916;51.676;6.614;2022-07-29T03:16:06;2.50;;;1.00;;
39190;SDS011;24916;51.676;6.614;2022-07-29T03:18:31;2.45;;;1.00;;
39190;SDS011;24916;51.676;6.614;2022-07-29T03:20:57;3.83;;;1.38;;
39190;SDS011;24916;51.676;6.614;2022-07-29T03:23:22;3.55;;;1.27;;
39190;SDS011;24916;51.676;6.614;2022-07-29T03:25:51;2.58;;;0.82;;
39190;SDS011;24916;51.676;6.614;2022-07-29T03:28:17;4.55;;;1.17;;
39190;SDS011;24916;51.676;6.614;2022-07-29T03:30:42;2.95;;;1.02;;
39190;SDS011;24916;51.676;6.614;2022-07-29T03:33:08;4.47;;;1.17;;
39190;SDS011;24916;51.676;6.614;2022-07-29T03:35:33;5.10;;;1.30;;
39190;SDS011;24916;51.676;6.614;2022-07-29T03:37:59;5.93;;;1.30;;
39190;SDS011;24916;51.676;6.614;2022-07-29T03:40:25;2.97;;;0.82;;
39190;SDS011;24916;51.676;6.614;2022-07-29T03:42:52;3.85;;;1.10;;
39190;SDS011;24916;51.676;6.614;2022-07-29T03:45:18;4.15;;;1.20;;
39190;SDS011;24916;51.676;6.614;2022-07-29T03:47:48;4.53;;;1.08;;
39190;SDS011;24916;51.676;6.614;2022-07-29T03:50:15;4.18;;;1.20;;
39190;SDS011;24916;51.676;6.614;2022-07-29T03:52:41;9.73;;;1.65;;
39190;SDS011;24916;51.676;6.614;2022-07-29T03:55:07;6.15;;;1.55;;
39190;SDS011;24916;51.676;6.614;2022-07-29T03:57:32;2.78;;;1.20;;
39190;SDS011;24916;51.676;6.614;2022-07-29T03:59:58;3.90;;;1.20;;
39190;SDS011;24916;51.676;6.614;2022-07-29T04:02:25;4.18;;;1.30;;
39190;SDS011;24916;51.676;6.614;2022-07-29T04:04:50;5.22;;;1.42;;
39190;SDS011;24916;51.676;6.614;2022-07-29T04:07:16;3.30;;;1.30;;
39190;SDS011;24916;51.676;6.614;2022-07-29T04:09:41;6.97;;;1.33;;
39190;SDS011;24916;51.676;6.614;2022-07-29T04:12:07;4.88;;;1.60;;
39190;SDS011;24916;51.676;6.614;2022-07-29T04:14:32;4.93;;;1.50;;
39190;SDS011;24916;51.676;6.614;2022-07-29T04:16:58;4.35;;;1.50;;
39190;SDS011;24916;51.676;6.614;2022-07-29T04:19:23;5.03;;;1.50;;
39190;SDS011;24916;51.676;6.614;2022-07-29T04:21:48;3.00;;;1.13;;
39190;SDS011;24916;51.676;6.614;2022-07-29T04:24:13;3.73;;;1.47;;
39190;SDS011;24916;51.676;6.614;2022-07-29T04:26:39;5.07;;;1.57;;
39190;SDS011;24916;51.676;6.614;2022-07-29T04:29:04;4.43;;;1.80;;
39190;SDS011;24916;51.676;6.614;2022-07-29T04:31:29;6.88;;;1.35;;
39190;SDS011;24916;51.676;6.614;2022-07-29T04:33:54;5.87;;;1.60;;
39190;SDS011;24916;51.676;6.614;2022-07-29T04:36:20;2.33;;;1.20;;
39190;SDS011;24916;51.676;6.614;2022-07-29T04:38:45;5.03;;;1.60;;
39190;SDS011;24916;51.676;6.614;2022-07-29T04:41:10;3.37;;;1.30;;
39190;SDS011;24916;51.676;6.614;2022-07-29T04:43:35;5.32;;;1.48;;
39190;SDS011;24916;51.676;6.614;2022-07-29T04:46:01;3.10;;;1.40;;
39190;SDS011;24916;51.676;6.614;2022-07-29T04:48:27;7.05;;;1.70;;
39190;SDS011;24916;51.676;6.614;2022-07-29T04:50:52;5.03;;;1.53;;
39190;SDS011;24916;51.676;6.614;2022-07-29T04:53:17;7.63;;;1.80;;
39190;SDS011;24916;51.676;6.614;2022-07-29T04:55:43;3.75;;;1.50;;
39190;SDS011;24916;51.676;6.614;2022-07-29T04:58:08;5.28;;;1.95;;
39190;SDS011;24916;51.676;6.614;2022-07-29T05:00:33;5.43;;;1.95;;
39190;SDS011;24916;51.676;6.614;2022-07-29T05:02:59;4.90;;;1.67;;
39190;SDS011;24916;51.676;6.614;2022-07-29T05:05:24;5.05;;;1.42;;
39190;SDS011;24916;51.676;6.614;2022-07-29T05:07:49;7.40;;;2.13;;
39190;SDS011;24916;51.676;6.614;2022-07-29T05:10:15;4.37;;;1.80;;
39190;SDS011;24916;51.676;6.614;2022-07-29T05:12:43;7.15;;;1.65;;
39190;SDS011;24916;51.676;6.614;2022-07-29T05:15:08;4.95;;;2.30;;
39190;SDS011;24916;51.676;6.614;2022-07-29T05:17:34;4.75;;;1.90;;
39190;SDS011;24916;51.676;6.614;2022-07-29T05:19:59;5.03;;;2.00;;
39190;SDS011;24916;51.676;6.614;2022-07-29T05:22:24;6.43;;;2.10;;
39190;SDS011;24916;51.676;6.614;2022-07-29T05:24:50;5.03;;;1.83;;
39190;SDS011;24916;51.676;6.614;2022-07-29T05:27:15;5.70;;;2.20;;
39190;SDS011;24916;51.676;6.614;2022-07-29T05:29:40;6.13;;;1.93;;
39190;SDS011;24916;51.676;6.614;2022-07-29T05:32:05;7.95;;;2.00;;
39190;SDS011;24916;51.676;6.614;2022-07-29T05:34:31;7.30;;;2.20;;
39190;SDS011;24916;51.676;6.614;2022-07-29T05:36:56;5.80;;;1.95;;
39190;SDS011;24916;51.676;6.614;2022-07-29T05:39:21;4.32;;;1.90;;
39190;SDS011;24916;51.676;6.614;2022-07-29T05:41:47;7.45;;;2.38;;
39190;SDS011;24916;51.676;6.614;2022-07-29T05:44:12;5.70;;;2.40;;
39190;SDS011;24916;51.676;6.614;2022-07-29T05:46:38;4.60;;;2.40;;
39190;SDS011;24916;51.676;6.614;2022-07-29T05:49:03;6.57;;;2.85;;
39190;SDS011;24916;51.676;6.614;2022-07-29T05:51:29;6.20;;;2.20;;
39190;SDS011;24916;51.676;6.614;2022-07-29T05:53:55;4.03;;;2.10;;
39190;SDS011;24916;51.676;6.614;2022-07-29T05:56:20;4.40;;;2.20;;
39190;SDS011;24916;51.676;6.614;2022-07-29T05:58:45;6.27;;;2.17;;
39190;SDS011;24916;51.676;6.614;2022-07-29T06:01:10;3.78;;;2.45;;
39190;SDS011;24916;51.676;6.614;2022-07-29T06:03:36;7.37;;;3.03;;
39190;SDS011;24916;51.676;6.614;2022-07-29T06:06:03;6.05;;;2.90;;
39190;SDS011;24916;51.676;6.614;2022-07-29T06:08:28;11.95;;;2.67;;
39190;SDS011;24916;51.676;6.614;2022-07-29T06:10:53;5.43;;;2.53;;
39190;SDS011;24916;51.676;6.614;2022-07-29T06:13:19;8.10;;;2.55;;
39190;SDS011;24916;51.676;6.614;2022-07-29T06:15:44;6.30;;;2.88;;
39190;SDS011;24916;51.676;6.614;2022-07-29T06:18:09;5.90;;;2.70;;
39190;SDS011;24916;51.676;6.614;2022-07-29T06:20:35;5.93;;;3.13;;
39190;SDS011;24916;51.676;6.614;2022-07-29T06:23:01;5.47;;;2.75;;
39190;SDS011;24916;51.676;6.614;2022-07-29T06:25:29;6.18;;;2.85;;
39190;SDS011;24916;51.676;6.614;2022-07-29T06:27:55;7.05;;;2.50;;
39190;SDS011;24916;51.676;6.614;2022-07-29T06:30:20;4.25;;;2.63;;
39190;SDS011;24916;51.676;6.614;2022-07-29T06:32:45;9.38;;;3.33;;
39190;SDS011;24916;51.676;6.614;2022-07-29T06:35:11;6.93;;;2.92;;
39190;SDS011;24916;51.676;6.614;2022-07-29T06:37:36;5.50;;;2.70;;
39190;SDS011;24916;51.676;6.614;2022-07-29T06:40:01;7.90;;;2.73;;
39190;SDS011;24916;51.676;6.614;2022-07-29T06:42:47;6.47;;;2.90;;
39190;SDS011;24916;51.676;6.614;2022-07-29T06:45:12;5.35;;;3.22;;
39190;SDS011;24916;51.676;6.614;2022-07-29T06:47:37;6.50;;;2.75;;
39190;SDS011;24916;51.676;6.614;2022-07-29T06:50:03;9.15;;;3.17;;
39190;SDS011;24916;51.676;6.614;2022-07-29T06:52:28;7.80;;;3.20;;
39190;SDS011;24916;51.676;6.614;2022-07-29T06:54:54;6.35;;;3.20;;
39190;SDS011;24916;51.676;6.614;2022-07-29T06:57:20;7.75;;;3.35;;
39190;SDS011;24916;51.676;6.614;2022-07-29T06:59:45;7.13;;;3.13;;
39190;SDS011;24916;51.676;6.614;2022-07-29T07:02:10;4.85;;;3.05;;
39190;SDS011;24916;51.676;6.614;2022-07-29T07:04:36;5.87;;;2.87;;
39190;SDS011;24916;51.676;6.614;2022-07-29T07:07:01;7.17;;;3.30;;
39190;SDS011;24916;51.676;6.614;2022-07-29T07:09:26;8.13;;;3.30;;
39190;SDS011;24916;51.676;6.614;2022-07-29T07:11:51;7.03;;;3.30;;
39190;SDS011;24916;51.676;6.614;2022-07-29T07:14:16;5.33;;;2.93;;
39190;SDS011;24916;51.676;6.614;2022-07-29T07:16:42;6.15;;;3.05;;
39190;SDS011;24916;51.676;6.614;2022-07-29T07:19:07;7.17;;;3.20;;
39190;SDS011;24916;51.676;6.614;2022-07-29T07:21:32;8.73;;;3.30;;
39190;SDS011;24916;51.676;6.614;2022-07-29T07:23:58;6.53;;;3.28;;
39190;SDS011;24916;51.676;6.614;2022-07-29T07:26:23;6.25;;;3.03;;
39190;SDS011;24916;51.676;6.614;2022-07-29T07:28:49;9.13;;;3.22;;
39190;SDS011;24916;51.676;6.614;2022-07-29T07:31:14;12.53;;;7.70;;
39190;SDS011;24916;51.676;6.614;2022-07-29T07:33:39;12.53;;;6.83;;
39190;SDS011;24916;51.676;6.614;2022-07-29T07:36:04;11.02;;;5.38;;
39190;SDS011;24916;51.676;6.614;2022-07-29T07:38:30;5.20;;;3.60;;
39190;SDS011;24916;51.676;6.614;2022-07-29T07:40:55;8.50;;;3.60;;
39190;SDS011;24916;51.676;6.614;2022-07-29T07:43:20;6.90;;;3.40;;
39190;SDS011;24916;51.676;6.614;2022-07-29T07:45:46;9.10;;;3.80;;
39190;SDS011;24916;51.676;6.614;2022-07-29T07:48:12;6.93;;;4.00;;
39190;SDS011;24916;51.676;6.614;2022-07-29T07:50:37;6.57;;;3.93;;
39190;SDS011;24916;51.676;6.614;2022-07-29T07:53:02;6.45;;;3.63;;
39190;SDS011;24916;51.676;6.614;2022-07-29T07:55:27;10.00;;;4.75;;
39190;SDS011;24916;51.676;6.614;2022-07-29T07:57:53;12.17;;;5.27;;
39190;SDS011;24916;51.676;6.614;2022-07-29T08:00:19;9.18;;;5.72;;
39190;SDS011;24916;51.676;6.614;2022-07-29T08:02:44;7.85;;;4.75;;
39190;SDS011;24916;51.676;6.614;2022-07-29T08:05:10;10.55;;;4.65;;
39190;SDS011;24916;51.676;6.614;2022-07-29T08:07:36;8.27;;;4.88;;
39190;SDS011;24916;51.676;6.614;2022-07-29T08:10:02;9.20;;;4.70;;
39190;SDS011;24916;51.676;6.614;2022-07-29T08:12:27;8.48;;;4.22;;
39190;SDS011;24916;51.676;6.614;2022-07-29T08:14:53;11.00;;;4.65;;
39190;SDS011;24916;51.676;6.614;2022-07-29T08:17:19;8.38;;;4.80;;
39190;SDS011;24916;51.676;6.614;2022-07-29T08:19:44;7.60;;;4.50;;
39190;SDS011;24916;51.676;6.614;2022-07-29T08:22:09;7.87;;;4.50;;
39190;SDS011;24916;51.676;6.614;2022-07-29T08:24:35;7.00;;;4.18;;
39190;SDS011;24916;51.676;6.614;2022-07-29T08:27:11;8.27;;;4.00;;
39190;SDS011;24916;51.676;6.614;2022-07-29T08:29:36;9.88;;;4.53;;
39190;SDS011;24916;51.676;6.614;2022-07-29T08:32:02;8.02;;;4.57;;
39190;SDS011;24916;51.676;6.614;2022-07-29T08:34:27;9.93;;;4.75;;
39190;SDS011;24916;51.676;6.614;2022-07-29T08:36:53;8.45;;;5.50;;
39190;SDS011;24916;51.676;6.614;2022-07-29T08:39:19;9.95;;;5.10;;
39190;SDS011;24916;51.676;6.614;2022-07-29T08:41:44;8.65;;;4.82;;
39190;SDS011;24916;51.676;6.614;2022-07-29T08:44:09;11.73;;;4.97;;
39190;SDS011;24916;51.676;6.614;2022-07-29T08:46:37;7.60;;;4.70;;
39190;SDS011;24916;51.676;6.614;2022-07-29T08:49:02;7.30;;;4.60;;
39190;SDS011;24916;51.676;6.614;2022-07-29T08:51:27;8.60;;;5.20;;
39190;SDS011;24916;51.676;6.614;2022-07-29T08:53:53;7.03;;;4.57;;
39190;SDS011;24916;51.676;6.614;2022-07-29T08:56:19;10.25;;;5.53;;
39190;SDS011;24916;51.676;6.614;2022-07-29T08:58:45;10.07;;;4.85;;
39190;SDS011;24916;51.676;6.614;2022-07-29T09:01:12;7.78;;;4.82;;
39190;SDS011;24916;51.676;6.614;2022-07-29T09:03:38;10.68;;;5.35;;
39190;SDS011;24916;51.676;6.614;2022-07-29T09:06:04;8.43;;;4.45;;
39190;SDS011;24916;51.676;6.614;2022-07-29T09:08:33;7.75;;;4.68;;
39190;SDS011;24916;51.676;6.614;2022-07-29T09:11:00;9.35;;;5.10;;
39190;SDS011;24916;51.676;6.614;2022-07-29T09:13:26;8.70;;;4.88;;
39190;SDS011;24916;51.676;6.614;2022-07-29T09:15:51;9.63;;;5.13;;
39190;SDS011;24916;51.676;6.614;2022-07-29T09:18:32;8.70;;;4.47;;
39190;SDS011;24916;51.676;6.614;2022-07-29T09:20:58;10.02;;;4.90;;
39190;SDS011;24916;51.676;6.614;2022-07-29T09:23:58;10.98;;;4.65;;
39190;SDS011;24916;51.676;6.614;2022-07-29T09:26:27;6.00;;;4.15;;
39190;SDS011;24916;51.676;6.614;2022-07-29T09:28:52;7.28;;;4.65;;
39190;SDS011;24916;51.676;6.614;2022-07-29T09:31:18;12.95;;;5.88;;
39190;SDS011;24916;51.676;6.614;2022-07-29T09:33:51;8.35;;;4.47;;
39190;SDS011;24916;51.676;6.614;2022-07-29T09:36:16;10.82;;;4.88;;
39190;SDS011;24916;51.676;6.614;2022-07-29T09:38:42;9.70;;;4.53;;
39190;SDS011;24916;51.676;6.614;2022-07-29T09:41:10;11.98;;;4.75;;
39190;SDS011;24916;51.676;6.614;2022-07-29T09:43:35;10.52;;;4.60;;
39190;SDS011;24916;51.676;6.614;2022-07-29T09:46:10;7.18;;;4.80;;
39190;SDS011;24916;51.676;6.614;2022-07-29T09:48:36;7.65;;;4.90;;
39190;SDS011;24916;51.676;6.614;2022-07-29T09:51:01;5.93;;;4.63;;
39190;SDS011;24916;51.676;6.614;2022-07-29T09:53:33;9.85;;;4.97;;
39190;SDS011;24916;51.676;6.614;2022-07-29T09:55:59;7.43;;;4.60;;
39190;SDS011;24916;51.676;6.614;2022-07-29T09:58:25;8.18;;;4.85;;
39190;SDS011;24916;51.676;6.614;2022-07-29T10:00:51;9.20;;;4.70;;
39190;SDS011;24916;51.676;6.614;2022-07-29T10:03:17;7.53;;;4.72;;
39190;SDS011;24916;51.676;6.614;2022-07-29T10:05:43;10.50;;;4.75;;
39190;SDS011;24916;51.676;6.614;2022-07-29T10:08:09;9.38;;;4.50;;
39190;SDS011;24916;51.676;6.614;2022-07-29T10:10:39;7.18;;;4.05;;
39190;SDS011;24916;51.676;6.614;2022-07-29T10:13:05;8.32;;;4.57;;
39190;SDS011;24916;51.676;6.614;2022-07-29T10:15:32;7.55;;;4.60;;
39190;SDS011;24916;51.676;6.614;2022-07-29T10:17:58;9.10;;;4.53;;
39190;SDS011;24916;51.676;6.614;2022-07-29T10:20:24;6.55;;;4.38;;
39190;SDS011;24916;51.676;6.614;2022-07-29T10:22:50;7.90;;;4.78;;
39190;SDS011;24916;51.676;6.614;2022-07-29T10:25:17;8.10;;;4.80;;
39190;SDS011;24916;51.676;6.614;2022-07-29T10:27:43;5.80;;;4.15;;
39190;SDS011;24916;51.676;6.614;2022-07-29T10:30:09;9.30;;;4.78;;
39190;SDS011;24916;51.676;6.614;2022-07-29T10:35:26;6.68;;;4.70;;
39190;SDS011;24916;51.676;6.614;2022-07-29T10:40:25;8.73;;;4.40;;
39190;SDS011;24916;51.676;6.614;2022-07-29T10:43:17;8.40;;;6.10;;
39190;SDS011;24916;51.676;6.614;2022-07-29T10:45:45;10.75;;;5.30;;
39190;SDS011;24916;51.676;6.614;2022-07-29T10:48:11;6.95;;;3.45;;
39190;SDS011;24916;51.676;6.614;2022-07-29T10:50:52;8.40;;;3.78;;
39190;SDS011;24916;51.676;6.614;2022-07-29T10:53:18;8.63;;;3.88;;
39190;SDS011;24916;51.676;6.614;2022-07-29T10:55:43;6.70;;;3.95;;
39190;SDS011;24916;51.676;6.614;2022-07-29T11:00:43;8.50;;;5.18;;
39190;SDS011;24916;51.676;6.614;2022-07-29T11:03:09;11.00;;;7.05;;
39190;SDS011;24916;51.676;6.614;2022-07-29T11:08:29;7.68;;;3.22;;
39190;SDS011;24916;51.676;6.614;2022-07-29T11:16:08;6.28;;;3.28;;
39190;SDS011;24916;51.676;6.614;2022-07-29T11:18:33;5.43;;;2.60;;
39190;SDS011;24916;51.676;6.614;2022-07-29T11:20:58;17.23;;;10.77;;
39190;SDS011;24916;51.676;6.614;2022-07-29T11:23:31;6.00;;;3.88;;
39190;SDS011;24916;51.676;6.614;2022-07-29T11:28:22;6.90;;;3.25;;
39190;SDS011;24916;51.676;6.614;2022-07-29T11:30:48;4.20;;;2.85;;
39190;SDS011;24916;51.676;6.614;2022-07-29T11:36:12;6.10;;;3.67;;
39190;SDS011;24916;51.676;6.614;2022-07-29T11:38:38;7.85;;;3.15;;
39190;SDS011;24916;51.676;6.614;2022-07-29T11:46:13;13.90;;;3.97;;
39190;SDS011;24916;51.676;6.614;2022-07-29T11:48:41;5.60;;;3.05;;
39190;SDS011;24916;51.676;6.614;2022-07-29T11:51:09;14.38;;;2.88;;
39190;SDS011;24916;51.676;6.614;2022-07-29T11:53:34;4.80;;;2.83;;
39190;SDS011;24916;51.676;6.614;2022-07-29T11:56:00;5.93;;;2.40;;
39190;SDS011;24916;51.676;6.614;2022-07-29T11:58:26;5.25;;;2.65;;
39190;SDS011;24916;51.676;6.614;2022-07-29T12:00:52;4.18;;;2.50;;
39190;SDS011;24916;51.676;6.614;2022-07-29T12:03:23;6.25;;;2.55;;
39190;SDS011;24916;51.676;6.614;2022-07-29T12:05:49;5.80;;;2.80;;
39190;SDS011;24916;51.676;6.614;2022-07-29T12:08:15;4.55;;;2.63;;
39190;SDS011;24916;51.676;6.614;2022-07-29T12:10:43;4.72;;;2.30;;
39190;SDS011;24916;51.676;6.614;2022-07-29T12:13:09;6.63;;;2.20;;
39190;SDS011;24916;51.676;6.614;2022-07-29T12:15:35;6.10;;;2.78;;
39190;SDS011;24916;51.676;6.614;2022-07-29T12:18:13;6.57;;;2.50;;
39190;SDS011;24916;51.676;6.614;2022-07-29T12:20:39;9.27;;;2.65;;
39190;SDS011;24916;51.676;6.614;2022-07-29T12:23:05;5.70;;;2.40;;
39190;SDS011;24916;51.676;6.614;2022-07-29T12:25:33;10.23;;;3.80;;
39190;SDS011;24916;51.676;6.614;2022-07-29T12:28:02;6.22;;;2.53;;
39190;SDS011;24916;51.676;6.614;2022-07-29T12:31:01;5.78;;;2.60;;
39190;SDS011;24916;51.676;6.614;2022-07-29T12:33:26;10.85;;;2.65;;
39190;SDS011;24916;51.676;6.614;2022-07-29T12:35:59;8.73;;;2.90;;
39190;SDS011;24916;51.676;6.614;2022-07-29T12:38:25;4.53;;;2.60;;
39190;SDS011;24916;51.676;6.614;2022-07-29T12:40:51;6.88;;;2.10;;
39190;SDS011;24916;51.676;6.614;2022-07-29T12:43:18;5.43;;;2.28;;
39190;SDS011;24916;51.676;6.614;2022-07-29T12:45:45;6.82;;;2.42;;
39190;SDS011;24916;51.676;6.614;2022-07-29T12:48:11;5.47;;;2.42;;
39190;SDS011;24916;51.676;6.614;2022-07-29T12:50:37;5.05;;;2.15;;
39190;SDS011;24916;51.676;6.614;2022-07-29T12:53:16;6.15;;;2.45;;
39190;SDS011;24916;51.676;6.614;2022-07-29T12:55:45;6.20;;;2.60;;
39190;SDS011;24916;51.676;6.614;2022-07-29T12:58:14;6.88;;;2.40;;
39190;SDS011;24916;51.676;6.614;2022-07-29T13:00:39;4.43;;;2.33;;
39190;SDS011;24916;51.676;6.614;2022-07-29T13:03:04;5.82;;;2.53;;
39190;SDS011;24916;51.676;6.614;2022-07-29T13:05:40;7.53;;;2.33;;
39190;SDS011;24916;51.676;6.614;2022-07-29T13:08:12;6.30;;;2.42;;
39190;SDS011;24916;51.676;6.614;2022-07-29T13:10:38;5.78;;;2.50;;
39190;SDS011;24916;51.676;6.614;2022-07-29T13:13:10;9.52;;;3.53;;
39190;SDS011;24916;51.676;6.614;2022-07-29T13:15:37;5.57;;;2.50;;
39190;SDS011;24916;51.676;6.614;2022-07-29T13:18:03;4.10;;;2.05;;
39190;SDS011;24916;51.676;6.614;2022-07-29T13:20:29;6.68;;;2.83;;
39190;SDS011;24916;51.676;6.614;2022-07-29T13:22:55;8.27;;;2.80;;
39190;SDS011;24916;51.676;6.614;2022-07-29T13:25:24;5.32;;;2.38;;
39190;SDS011;24916;51.676;6.614;2022-07-29T13:27:50;5.75;;;2.58;;
39190;SDS011;24916;51.676;6.614;2022-07-29T13:30:15;6.50;;;3.80;;
39190;SDS011;24916;51.676;6.614;2022-07-29T13:32:40;6.53;;;3.20;;
39190;SDS011;24916;51.676;6.614;2022-07-29T13:35:06;7.57;;;3.33;;
39190;SDS011;24916;51.676;6.614;2022-07-29T13:37:32;6.22;;;2.72;;
39190;SDS011;24916;51.676;6.614;2022-07-29T13:39:59;4.82;;;2.40;;
39190;SDS011;24916;51.676;6.614;2022-07-29T13:42:25;6.88;;;2.70;;
39190;SDS011;24916;51.676;6.614;2022-07-29T13:44:50;5.32;;;2.50;;
39190;SDS011;24916;51.676;6.614;2022-07-29T13:47:17;6.00;;;2.80;;
39190;SDS011;24916;51.676;6.614;2022-07-29T13:49:42;4.82;;;2.70;;
39190;SDS011;24916;51.676;6.614;2022-07-29T13:52:07;4.60;;;2.93;;
39190;SDS011;24916;51.676;6.614;2022-07-29T13:54:33;8.23;;;3.17;;
39190;SDS011;24916;51.676;6.614;2022-07-29T13:57:00;9.20;;;3.03;;
39190;SDS011;24916;51.676;6.614;2022-07-29T13:59:26;7.10;;;3.13;;
39190;SDS011;24916;51.676;6.614;2022-07-29T14:01:51;5.03;;;2.60;;
39190;SDS011;24916;51.676;6.614;2022-07-29T14:04:16;5.07;;;2.40;;
39190;SDS011;24916;51.676;6.614;2022-07-29T14:06:41;7.63;;;2.80;;
39190;SDS011;24916;51.676;6.614;2022-07-29T14:09:07;8.80;;;2.90;;
39190;SDS011;24916;51.676;6.614;2022-07-29T14:11:33;6.22;;;2.63;;
39190;SDS011;24916;51.676;6.614;2022-07-29T14:13:59;6.65;;;2.47;;
39190;SDS011;24916;51.676;6.614;2022-07-29T14:16:24;9.73;;;2.77;;
39190;SDS011;24916;51.676;6.614;2022-07-29T14:18:49;7.47;;;2.90;;
39190;SDS011;24916;51.676;6.614;2022-07-29T14:21:14;6.10;;;2.30;;
39190;SDS011;24916;51.676;6.614;2022-07-29T14:23:40;4.30;;;2.57;;
39190;SDS011;24916;51.676;6.614;2022-07-29T14:26:05;6.43;;;2.58;;
39190;SDS011;24916;51.676;6.614;2022-07-29T14:28:31;6.35;;;2.45;;
39190;SDS011;24916;51.676;6.614;2022-07-29T14:30:56;5.18;;;2.60;;
39190;SDS011;24916;51.676;6.614;2022-07-29T14:33:22;5.78;;;3.05;;
39190;SDS011;24916;51.676;6.614;2022-07-29T14:35:47;6.05;;;2.58;;
39190;SDS011;24916;51.676;6.614;2022-07-29T14:38:12;8.73;;;3.47;;
39190;SDS011;24916;51.676;6.614;2022-07-29T14:40:37;14.47;;;5.83;;
39190;SDS011;24916;51.676;6.614;2022-07-29T14:43:03;8.90;;;3.30;;
39190;SDS011;24916;51.676;6.614;2022-07-29T14:45:28;6.43;;;2.80;;
39190;SDS011;24916;51.676;6.614;2022-07-29T14:47:53;6.90;;;2.40;;
39190;SDS011;24916;51.676;6.614;2022-07-29T14:50:19;10.07;;;2.03;;
39190;SDS011;24916;51.676;6.614;2022-07-29T14:52:44;7.33;;;2.60;;
39190;SDS011;24916;51.676;6.614;2022-07-29T14:55:09;6.57;;;3.10;;
39190;SDS011;24916;51.676;6.614;2022-07-29T14:57:35;4.15;;;2.40;;
39190;SDS011;24916;51.676;6.614;2022-07-29T15:00:00;4.77;;;2.50;;
39190;SDS011;24916;51.676;6.614;2022-07-29T15:02:26;7.32;;;2.38;;
39190;SDS011;24916;51.676;6.614;2022-07-29T15:04:51;4.23;;;2.00;;
39190;SDS011;24916;51.676;6.614;2022-07-29T15:07:16;5.97;;;2.00;;
39190;SDS011;24916;51.676;6.614;2022-07-29T15:09:42;4.33;;;2.10;;
39190;SDS011;24916;51.676;6.614;2022-07-29T15:12:07;6.00;;;1.92;;
39190;SDS011;24916;51.676;6.614;2022-07-29T15:14:33;6.78;;;2.10;;
39190;SDS011;24916;51.676;6.614;2022-07-29T15:16:58;4.95;;;1.80;;
39190;SDS011;24916;51.676;6.614;2022-07-29T15:19:26;8.60;;;1.98;;
39190;SDS011;24916;51.676;6.614;2022-07-29T15:21:51;4.95;;;2.00;;
39190;SDS011;24916;51.676;6.614;2022-07-29T15:24:17;4.55;;;1.70;;